Airfield :
LOGIN :

Register | Disclaimer

   EN    FR    IT 

 










Legend :    VFR   Marginal VFR   IFR   Intensive IFR   Very Intensive IFR
Visi :
Ceiling :
>= 8 km
>= 3000ft
5 to 8 km
1000 to 3000 ft
1500m to 5 km
500 to 1000 ft
800 to 1500m
200 to 500 ft
< 800m
< 200 ft
Symbols :   Thunderstorms  Fog  Heavy snow  Heavy precipitations  Wind > 20 kt
SIGMETs :     Misc.  Thunderstorms  Icing  Turbulence  Mountain Waves  Volcanic Ashes






- Airport Elevation : 266 ft
- IATA code : NCL


EGNT - Newcastle

CURRENT METAR :
  • 220420Z AUTO VRB02KT 9999 BKN027/// 05/05 Q1022

EXPIRED METARs :
  • 220350Z AUTO 23002KT 7000 FEW028/// 04/04 Q1022
  • 220320Z AUTO 22002KT 9000 BKN028/// 04/04 Q1022
  • 220250Z AUTO 25003KT 8000 BKN029/// 04/04 Q1022
  • 220220Z AUTO 23002KT 7000 FEW032/// 05/04 Q1022
  • 220150Z AUTO 24002KT 9999 FEW034/// 05/04 Q1022

TAF AMD TAF EGNT
Valid from the 22 at 02:00 until the 23 at 00:00 UTC


220213Z 2202/2224 30003KT 9999 FEW020
PROB30
TEMPO 2202/2206 9000
BECMG 2212/2215 12010KT
BECMG 2221/2224 27006KT
ATIS : +44 191 214 3400



MET'MAP, your aeronautical weather chart ! - Copyright ORBIFLY December 2007 - Disclaimer

ORBIFLY MET'MAP TEAM :

Programming & Development : Alexandra Zaïnal
Concept & original design : Baudouin d'Aumeries
Assistance for programming : Marc-Olivier Méhu
Technical & hardware support : Manuel Goepfert

Contact : metmap@orbifly.com




SOURCES & CREDITS :

   NOAA